Saint Helena Island, United Kingdom
Current Conditions -  °F | °C
As of 1:00 AM on Sunday 26 Oct 2014 (Local Time) from FNLU Reporting Station
Broken Clouds Broken Clouds  
Wind Chill: 77°   Ceiling: 9000
Heat Index: 78°   Visibility: 6mi
Dew Point: 72°   Wind: 7mph
Humidity: 83%   Direction: 230°SW
Pressure: 29.91"   Gusts: NA
Location:  15.93°S, 5.07°W
Report Text: FNLU 260000Z 23006KT 9999 FEW020 BKN090 25/22 Q1013 NOSIG
Loading
Personal Weather Stations






























Interactive Weather Map
Tropical Storm Tracking
New forecast layout! Learn more

10-Day Weather Forecast

Advertisements
Track Severe Weather on mobile